createdAt,value
2019-05-18T00:00:10.077Z,10.56
2019-05-18T00:02:41.035Z,10.50
2019-05-18T00:05:10.611Z,10.46
2019-05-18T00:07:39.951Z,10.40
2019-05-18T00:10:09.572Z,10.37
2019-05-18T00:12:39.003Z,10.34
2019-05-18T00:15:10.490Z,10.31
2019-05-18T00:17:39.833Z,10.27
2019-05-18T00:20:09.618Z,10.23
2019-05-18T00:22:38.970Z,10.18
2019-05-18T00:25:08.574Z,10.11
2019-05-18T00:27:37.991Z,10.06
2019-05-18T00:30:10.793Z,10.04
2019-05-18T00:32:40.128Z,10.01
2019-05-18T00:35:09.973Z,9.93
2019-05-18T00:37:39.377Z,9.89
2019-05-18T00:40:08.846Z,9.85
2019-05-18T00:42:38.213Z,9.83
2019-05-18T00:45:10.456Z,9.77
2019-05-18T00:47:41.703Z,9.73
2019-05-18T00:50:11.356Z,9.71
2019-05-18T00:52:41.025Z,9.68
2019-05-18T00:55:10.852Z,9.64
2019-05-18T00:57:40.190Z,9.61
2019-05-18T01:00:10.643Z,9.57
2019-05-18T01:02:40.041Z,9.57
2019-05-18T01:05:09.507Z,9.55
2019-05-18T01:07:38.857Z,9.53
2019-05-18T01:10:09.231Z,9.49
2019-05-18T01:12:38.570Z,9.47
2019-05-18T01:15:08.872Z,9.43
2019-05-18T01:17:38.277Z,9.38
2019-05-18T01:20:08.046Z,9.34
2019-05-18T01:22:37.645Z,9.31
2019-05-18T01:25:07.911Z,9.28
2019-05-18T01:27:37.285Z,9.24
2019-05-18T01:30:08.114Z,9.21
2019-05-18T01:32:38.428Z,9.20
2019-05-18T01:35:08.296Z,9.17
2019-05-18T01:37:37.967Z,9.16
2019-05-18T01:40:07.743Z,9.14
2019-05-18T01:42:37.127Z,9.14
2019-05-18T01:45:16.525Z,9.14
2019-05-18T01:47:39.466Z,9.12
2019-05-18T01:50:09.318Z,9.13
2019-05-18T01:52:38.646Z,9.11
2019-05-18T01:55:09.822Z,9.10
2019-05-18T01:57:39.150Z,9.12
2019-05-18T02:00:10.325Z,9.14
2019-05-18T02:02:39.648Z,9.16
2019-05-18T02:05:10.337Z,9.19
2019-05-18T02:07:39.666Z,9.22
2019-05-18T02:10:09.444Z,9.24
2019-05-18T02:12:38.780Z,9.28
2019-05-18T02:15:08.989Z,9.32
2019-05-18T02:17:38.324Z,9.39
2019-05-18T02:20:08.364Z,9.42
2019-05-18T02:22:37.689Z,9.46
2019-05-18T02:25:07.862Z,9.49
2019-05-18T02:27:37.435Z,9.52
2019-05-18T02:30:07.911Z,9.55
2019-05-18T02:32:37.254Z,9.58
2019-05-18T02:35:07.019Z,9.60
2019-05-18T02:37:36.345Z,9.62
2019-05-18T02:40:07.135Z,9.62
2019-05-18T02:42:36.530Z,9.64
2019-05-18T02:45:07.619Z,9.66
2019-05-18T02:47:37.074Z,9.65
2019-05-18T02:50:08.214Z,9.64
2019-05-18T02:52:38.532Z,9.64
2019-05-18T02:55:08.802Z,9.62
2019-05-18T02:57:38.178Z,9.61
2019-05-18T03:00:10.739Z,9.60
2019-05-18T03:02:40.077Z,9.58
2019-05-18T03:05:09.858Z,9.55
2019-05-18T03:07:39.173Z,9.51
2019-05-18T03:10:08.753Z,9.49
2019-05-18T03:12:38.072Z,9.47
2019-05-18T03:15:08.727Z,9.45
2019-05-18T03:17:38.051Z,9.42
2019-05-18T03:20:07.828Z,9.39
2019-05-18T03:22:37.248Z,9.33
2019-05-18T03:25:09.776Z,9.30
2019-05-18T03:27:39.109Z,9.26
2019-05-18T03:30:08.991Z,9.28
2019-05-18T03:32:38.319Z,9.30
2019-05-18T03:35:07.831Z,9.29
2019-05-18T03:37:37.159Z,9.27
2019-05-18T03:40:06.645Z,9.24
2019-05-18T03:42:35.973Z,9.21
2019-05-18T03:45:05.764Z,9.21
2019-05-18T03:47:35.091Z,9.23
2019-05-18T03:50:09.752Z,9.21
2019-05-18T03:52:39.076Z,9.19
2019-05-18T03:55:08.651Z,9.18
2019-05-18T03:57:37.984Z,9.16
2019-05-18T04:00:08.065Z,9.11
2019-05-18T04:02:37.678Z,9.12
2019-05-18T04:05:07.847Z,9.14
2019-05-18T04:07:37.179Z,9.12
2019-05-18T04:10:09.655Z,9.10
2019-05-18T04:12:38.996Z,9.09
2019-05-18T04:15:09.838Z,9.07
2019-05-18T04:17:39.177Z,9.06
2019-05-18T04:20:08.943Z,9.05
2019-05-18T04:22:38.258Z,9.04
2019-05-18T04:25:07.856Z,9.01
2019-05-18T04:27:37.183Z,9.00
2019-05-18T04:30:09.826Z,9.01
2019-05-18T04:32:39.163Z,9.02
2019-05-18T04:35:08.769Z,9.03
2019-05-18T04:37:38.119Z,9.06
2019-05-18T04:40:08.170Z,9.09
2019-05-18T04:42:37.497Z,9.13
2019-05-18T04:45:09.320Z,9.17
2019-05-18T04:47:38.669Z,9.20
2019-05-18T04:50:09.539Z,9.25
2019-05-18T04:52:38.878Z,9.30
2019-05-18T04:55:08.282Z,9.34
2019-05-18T04:57:37.620Z,9.43
2019-05-18T05:00:08.481Z,9.52
2019-05-18T05:02:37.878Z,9.61
2019-05-18T05:05:07.835Z,9.71
2019-05-18T05:07:37.162Z,9.81
2019-05-18T05:10:07.158Z,9.93
2019-05-18T05:12:36.465Z,10.03
2019-05-18T05:15:05.869Z,10.15
2019-05-18T05:17:36.187Z,10.24
2019-05-18T05:20:18.631Z,10.32
2019-05-18T05:22:37.709Z,10.41
2019-05-18T05:25:07.185Z,10.52
2019-05-18T05:27:36.537Z,10.61
2019-05-18T05:30:09.169Z,10.68
2019-05-18T05:32:38.511Z,10.76
2019-05-18T05:35:08.585Z,10.84
2019-05-18T05:37:37.923Z,10.92
2019-05-18T05:40:07.705Z,10.98
2019-05-18T05:42:37.045Z,11.06
2019-05-18T05:45:09.729Z,11.12
2019-05-18T05:47:39.058Z,11.19
2019-05-18T05:50:09.931Z,11.25
2019-05-18T05:52:39.310Z,11.32
2019-05-18T05:55:09.473Z,11.39
2019-05-18T05:57:38.801Z,11.47
2019-05-18T06:00:09.475Z,11.51
2019-05-18T06:02:38.812Z,11.56
2019-05-18T06:05:08.385Z,11.63
2019-05-18T06:07:37.733Z,11.67
2019-05-18T06:10:08.469Z,11.73
2019-05-18T06:12:37.822Z,11.81
2019-05-18T06:15:08.972Z,11.86
2019-05-18T06:17:39.506Z,11.92
2019-05-18T06:20:09.683Z,11.98
2019-05-18T06:22:39.321Z,12.05
2019-05-18T06:25:08.992Z,12.11
2019-05-18T06:27:38.341Z,12.16
2019-05-18T06:30:09.151Z,12.21
2019-05-18T06:32:38.651Z,12.25
2019-05-18T06:35:08.831Z,12.33
2019-05-18T06:37:38.167Z,12.40
2019-05-18T06:40:07.948Z,12.46
2019-05-18T06:42:37.355Z,12.53
2019-05-18T06:45:07.836Z,12.58
2019-05-18T06:47:37.185Z,12.60
2019-05-18T06:50:12.093Z,12.64
2019-05-18T06:52:39.468Z,12.67
2019-05-18T06:55:09.340Z,12.68
2019-05-18T06:57:39.211Z,12.69
2019-05-18T07:00:10.835Z,12.71
2019-05-18T07:02:40.170Z,12.73
2019-05-18T07:05:09.852Z,12.76
2019-05-18T07:07:39.185Z,12.78
2019-05-18T07:10:09.377Z,12.83
2019-05-18T07:12:38.699Z,12.83
2019-05-18T07:15:08.880Z,12.88
2019-05-18T07:17:39.184Z,12.87
2019-05-18T07:20:09.763Z,12.87
2019-05-18T07:22:39.100Z,12.93
2019-05-18T07:25:08.779Z,12.97
2019-05-18T07:27:38.523Z,13.06
2019-05-18T07:30:08.507Z,13.10
2019-05-18T07:32:37.984Z,13.14
2019-05-18T07:35:08.842Z,13.17
2019-05-18T07:37:38.175Z,13.21
2019-05-18T07:40:08.313Z,13.25
2019-05-18T07:42:37.644Z,13.33
2019-05-18T07:45:09.021Z,13.40
2019-05-18T07:47:38.384Z,13.48
2019-05-18T07:50:08.233Z,13.58
2019-05-18T07:52:37.571Z,13.67
2019-05-18T07:55:07.195Z,13.72
2019-05-18T07:57:36.667Z,13.77
2019-05-18T08:00:07.139Z,13.88
2019-05-18T08:02:36.639Z,13.96
2019-05-18T08:05:07.586Z,14.06
2019-05-18T08:07:36.922Z,14.10
2019-05-18T08:10:08.196Z,14.18
2019-05-18T08:12:37.537Z,14.27
2019-05-18T08:15:09.009Z,14.35
2019-05-18T08:17:38.352Z,14.41
2019-05-18T08:20:08.317Z,14.46
2019-05-18T08:22:37.668Z,14.53
2019-05-18T08:25:07.860Z,14.58
2019-05-18T08:27:37.205Z,14.66
2019-05-18T08:30:09.582Z,14.69
2019-05-18T08:32:38.949Z,14.76
2019-05-18T08:35:09.674Z,14.83
2019-05-18T08:37:39.025Z,14.90
2019-05-18T08:40:10.097Z,14.99
2019-05-18T08:42:39.566Z,15.08
2019-05-18T08:45:10.857Z,15.22
2019-05-18T08:47:40.603Z,15.24
2019-05-18T08:50:10.374Z,15.29
2019-05-18T08:52:39.720Z,15.39
2019-05-18T08:55:10.043Z,15.49
2019-05-18T08:57:39.389Z,15.56
2019-05-18T09:00:09.957Z,15.66
2019-05-18T09:02:39.300Z,15.69
2019-05-18T09:05:09.378Z,15.69
2019-05-18T09:07:38.948Z,15.81
2019-05-18T09:10:09.008Z,15.84
2019-05-18T09:12:38.350Z,15.91
2019-05-18T09:15:08.160Z,15.99
2019-05-18T09:17:37.491Z,16.07
2019-05-18T09:20:07.859Z,16.17
2019-05-18T09:22:37.347Z,16.25
2019-05-18T09:25:07.878Z,16.33
2019-05-18T09:27:38.191Z,16.42
2019-05-18T09:30:08.875Z,16.49
2019-05-18T09:32:38.474Z,16.60
2019-05-18T09:35:09.318Z,16.70
2019-05-18T09:37:38.979Z,16.71
2019-05-18T09:40:08.846Z,16.81
2019-05-18T09:42:38.325Z,16.93
2019-05-18T09:45:08.811Z,17.03
2019-05-18T09:47:38.162Z,17.10
2019-05-18T09:50:09.303Z,17.16
2019-05-18T09:52:46.502Z,17.30
2019-05-18T09:55:10.191Z,17.43
2019-05-18T09:57:39.534Z,17.54
2019-05-18T10:00:10.806Z,17.58
2019-05-18T10:02:40.422Z,17.72
2019-05-18T10:05:10.397Z,17.83
2019-05-18T10:07:40.015Z,17.91
2019-05-18T10:10:10.623Z,17.98
2019-05-18T10:12:41.385Z,18.05
2019-05-18T10:15:10.870Z,18.14
2019-05-18T10:17:40.276Z,18.23
2019-05-18T10:20:10.352Z,18.21
2019-05-18T10:22:53.298Z,18.30
2019-05-18T10:25:11.596Z,18.36
2019-05-18T10:27:41.204Z,18.44
2019-05-18T10:30:10.959Z,18.47
2019-05-18T10:32:40.295Z,18.57
2019-05-18T10:35:10.185Z,18.51
2019-05-18T10:37:39.513Z,18.58
2019-05-18T10:40:09.935Z,18.66
2019-05-18T10:42:39.266Z,18.73
2019-05-18T10:45:08.938Z,18.82
2019-05-18T10:47:38.340Z,18.89
2019-05-18T10:50:08.408Z,18.94
2019-05-18T10:52:37.989Z,18.94
2019-05-18T10:55:10.325Z,18.85
2019-05-18T10:57:39.764Z,19.00
2019-05-18T11:00:11.715Z,19.07
2019-05-18T11:02:41.142Z,19.20
2019-05-18T11:05:10.918Z,19.21
2019-05-18T11:07:40.549Z,19.28
2019-05-18T11:10:11.057Z,19.39
2019-05-18T11:12:40.520Z,19.65
2019-05-18T11:15:12.527Z,19.88
2019-05-18T11:17:41.853Z,20.06
2019-05-18T11:20:12.173Z,20.11
2019-05-18T11:22:41.561Z,20.13
2019-05-18T11:25:11.086Z,20.34
2019-05-18T11:27:40.414Z,20.56
2019-05-18T11:30:12.607Z,20.93
2019-05-18T11:32:41.926Z,21.26
2019-05-18T11:35:12.312Z,21.48
2019-05-18T11:37:41.621Z,21.75
2019-05-18T11:40:14.351Z,22.06
2019-05-18T11:42:43.676Z,22.44
2019-05-18T11:45:15.555Z,22.91
2019-05-18T11:47:45.252Z,22.95
2019-05-18T11:50:15.027Z,23.43
2019-05-18T11:52:44.534Z,23.97
2019-05-18T11:55:14.400Z,24.60
2019-05-18T11:57:43.725Z,25.23
2019-05-18T12:00:14.874Z,25.63
2019-05-18T12:02:44.192Z,25.75
2019-05-18T12:05:14.557Z,25.90
2019-05-18T12:07:43.893Z,26.02
2019-05-18T12:10:13.460Z,26.04
2019-05-18T12:12:42.786Z,26.41
2019-05-18T12:15:12.747Z,26.67
2019-05-18T12:17:42.090Z,26.63
2019-05-18T12:20:12.062Z,26.46
2019-05-18T12:22:41.393Z,26.25
2019-05-18T12:25:11.048Z,26.33
2019-05-18T12:27:40.441Z,26.44
2019-05-18T12:30:11.112Z,26.52
2019-05-18T12:32:40.437Z,26.46
2019-05-18T12:35:10.365Z,26.42
2019-05-18T12:37:39.704Z,26.51
2019-05-18T12:40:10.116Z,26.61
2019-05-18T12:42:39.448Z,26.59
2019-05-18T12:45:09.207Z,26.59
2019-05-18T12:47:38.674Z,26.61
2019-05-18T12:50:09.345Z,26.75
2019-05-18T12:52:38.814Z,26.72
2019-05-18T12:55:09.022Z,26.38
2019-05-18T12:57:38.389Z,26.30
2019-05-18T13:00:10.096Z,26.53
2019-05-18T13:02:39.438Z,27.28
2019-05-18T13:05:09.355Z,27.89
2019-05-18T13:07:38.772Z,28.42
2019-05-18T13:10:10.672Z,29.02
2019-05-18T13:12:41.084Z,29.62
2019-05-18T13:15:12.120Z,30.06
2019-05-18T13:17:41.457Z,30.17
2019-05-18T13:20:11.820Z,30.52
2019-05-18T13:22:41.387Z,30.89
2019-05-18T13:25:11.553Z,31.06
2019-05-18T13:27:40.956Z,30.97
2019-05-18T13:30:12.442Z,31.21
2019-05-18T13:32:41.900Z,31.47
2019-05-18T13:35:11.765Z,30.88
2019-05-18T13:37:41.129Z,30.54
2019-05-18T13:40:12.213Z,30.82
2019-05-18T13:42:41.560Z,31.13
2019-05-18T13:45:11.510Z,30.94
2019-05-18T13:47:40.859Z,30.90
2019-05-18T13:50:11.525Z,31.35
2019-05-18T13:52:40.871Z,31.78
2019-05-18T13:55:10.556Z,32.12
2019-05-18T13:57:39.880Z,32.20
2019-05-18T14:00:09.820Z,32.42
2019-05-18T14:02:39.179Z,32.46
2019-05-18T14:05:08.624Z,32.39
2019-05-18T14:07:37.955Z,32.33
2019-05-18T14:10:08.223Z,32.56
2019-05-18T14:12:37.590Z,32.59
2019-05-18T14:15:07.425Z,32.12
2019-05-18T14:17:36.747Z,31.80
2019-05-18T14:20:06.710Z,31.71
2019-05-18T14:22:36.036Z,31.99
2019-05-18T14:25:18.614Z,32.20
2019-05-18T14:27:38.502Z,32.27
2019-05-18T14:30:08.746Z,32.24
2019-05-18T14:32:38.039Z,32.18
2019-05-18T14:35:08.474Z,32.40
2019-05-18T14:37:38.084Z,32.64
2019-05-18T14:40:08.039Z,32.71
2019-05-18T14:42:37.430Z,32.77
2019-05-18T14:45:08.957Z,32.62
2019-05-18T14:47:38.269Z,32.64
2019-05-18T14:50:10.415Z,32.52
2019-05-18T14:52:39.742Z,32.23
2019-05-18T14:55:10.320Z,32.06
2019-05-18T14:57:39.643Z,31.79
2019-05-18T15:00:09.711Z,31.29
2019-05-18T15:02:39.042Z,31.04
2019-05-18T15:05:09.008Z,30.99
2019-05-18T15:07:38.338Z,30.66
2019-05-18T15:10:08.219Z,30.32
2019-05-18T15:12:37.549Z,30.26
2019-05-18T15:15:08.016Z,30.36
2019-05-18T15:17:37.490Z,30.39
2019-05-18T15:20:08.080Z,30.27
2019-05-18T15:22:37.396Z,30.06
2019-05-18T15:25:07.166Z,30.01
2019-05-18T15:27:36.487Z,29.83
2019-05-18T15:30:07.565Z,29.37
2019-05-18T15:32:36.890Z,29.19
2019-05-18T15:35:09.733Z,29.20
2019-05-18T15:37:43.192Z,28.86
2019-05-18T15:40:11.365Z,28.31
2019-05-18T15:42:40.806Z,28.31
2019-05-18T15:45:12.257Z,28.01
2019-05-18T15:47:41.561Z,27.63
2019-05-18T15:50:11.629Z,27.37
2019-05-18T15:52:41.928Z,27.09
2019-05-18T15:55:11.413Z,26.95
2019-05-18T15:57:40.742Z,26.81
2019-05-18T16:00:10.818Z,26.87
2019-05-18T16:02:40.221Z,26.76
2019-05-18T16:05:09.827Z,26.82
2019-05-18T16:07:39.204Z,26.66
2019-05-18T16:10:09.667Z,26.52
2019-05-18T16:12:39.289Z,26.40
2019-05-18T16:15:09.386Z,26.05
2019-05-18T16:17:40.081Z,25.87
2019-05-18T16:20:10.464Z,25.70
2019-05-18T16:22:39.796Z,25.63
2019-05-18T16:25:10.562Z,25.64
2019-05-18T16:27:39.894Z,25.41
2019-05-18T16:30:10.269Z,25.24
2019-05-18T16:32:39.601Z,24.86
2019-05-18T16:35:09.373Z,24.70
2019-05-18T16:37:38.776Z,24.43
2019-05-18T16:40:08.728Z,24.28
2019-05-18T16:42:38.576Z,24.18
2019-05-18T16:45:10.038Z,24.04
2019-05-18T16:47:39.361Z,23.86
2019-05-18T16:50:09.239Z,23.48
2019-05-18T16:52:38.572Z,23.34
2019-05-18T16:55:08.941Z,23.13
2019-05-18T16:57:38.279Z,22.86
2019-05-18T17:00:15.758Z,22.65
2019-05-18T17:02:43.651Z,22.33
2019-05-18T17:05:15.110Z,21.98
2019-05-18T17:07:44.473Z,21.84
2019-05-18T17:10:15.547Z,21.69
2019-05-18T17:12:44.879Z,21.49
2019-05-18T17:15:14.663Z,21.26
2019-05-18T17:17:44.001Z,21.03
2019-05-18T17:20:13.677Z,20.83
2019-05-18T17:22:43.007Z,20.57
2019-05-18T17:25:12.493Z,20.35
2019-05-18T17:27:42.088Z,20.19
2019-05-18T17:30:11.759Z,20.05
2019-05-18T17:32:41.092Z,19.91
2019-05-18T17:35:11.301Z,19.82
2019-05-18T17:37:40.642Z,19.64
2019-05-18T17:40:10.240Z,19.50
2019-05-18T17:42:39.580Z,19.37
2019-05-18T17:45:09.229Z,19.26
2019-05-18T17:47:39.536Z,19.18
2019-05-18T17:50:10.718Z,19.06
2019-05-18T17:52:40.045Z,18.94
2019-05-18T17:55:09.915Z,18.87
2019-05-18T17:57:39.243Z,18.78
2019-05-18T18:00:09.684Z,18.71
2019-05-18T18:02:40.115Z,18.68
2019-05-18T18:05:09.588Z,18.63
2019-05-18T18:07:39.196Z,18.57
2019-05-18T18:10:08.860Z,18.54
2019-05-18T18:12:38.188Z,18.52
2019-05-18T18:15:08.666Z,18.51
2019-05-18T18:17:38.336Z,18.49
2019-05-18T18:20:08.218Z,18.45
2019-05-18T18:22:37.536Z,18.43
2019-05-18T18:25:07.383Z,18.40
2019-05-18T18:27:37.481Z,18.36
2019-05-18T18:30:11.877Z,18.35
2019-05-18T18:32:41.525Z,18.30
2019-05-18T18:35:13.255Z,18.29
2019-05-18T18:37:42.888Z,18.26
2019-05-18T18:40:12.476Z,18.18
2019-05-18T18:42:41.787Z,18.14
2019-05-18T18:45:11.756Z,18.07
2019-05-18T18:47:41.195Z,18.00
2019-05-18T18:50:10.962Z,17.95
2019-05-18T18:52:40.286Z,17.89
2019-05-18T18:55:10.200Z,17.82
2019-05-18T18:57:41.686Z,17.74
2019-05-18T19:00:11.293Z,17.64
2019-05-18T19:02:40.670Z,17.55
2019-05-18T19:05:10.299Z,17.43
2019-05-18T19:07:39.623Z,17.34
2019-05-18T19:10:09.702Z,17.21
2019-05-18T19:12:39.026Z,17.14
2019-05-18T19:15:09.608Z,17.06
2019-05-18T19:17:39.180Z,16.96
2019-05-18T19:20:09.830Z,16.90
2019-05-18T19:22:39.154Z,16.84
2019-05-18T19:25:08.831Z,16.79
2019-05-18T19:27:38.161Z,16.72
2019-05-18T19:30:09.913Z,16.69
2019-05-18T19:32:39.159Z,16.64
2019-05-18T19:35:09.253Z,16.61
2019-05-18T19:37:38.588Z,16.58
2019-05-18T19:40:10.438Z,16.54
2019-05-18T19:42:40.077Z,16.48
2019-05-18T19:45:10.353Z,16.47
2019-05-18T19:47:39.696Z,16.43
2019-05-18T19:50:09.546Z,16.39
2019-05-18T19:52:38.879Z,16.37
2019-05-18T19:55:09.064Z,16.31
2019-05-18T19:57:38.390Z,16.29
2019-05-18T20:00:09.633Z,16.25
2019-05-18T20:02:39.047Z,16.19
2019-05-18T20:05:09.556Z,16.17
2019-05-18T20:07:39.207Z,16.13
2019-05-18T20:10:10.207Z,16.10
2019-05-18T20:12:39.643Z,16.05
2019-05-18T20:15:09.969Z,16.01
2019-05-18T20:17:40.449Z,15.96
2019-05-18T20:20:12.192Z,15.91
2019-05-18T20:22:41.805Z,15.86
2019-05-18T20:25:11.387Z,15.80
2019-05-18T20:27:40.733Z,15.71
2019-05-18T20:30:10.630Z,15.64
2019-05-18T20:32:40.360Z,15.59
2019-05-18T20:35:10.538Z,15.52
2019-05-18T20:37:39.875Z,15.45
2019-05-18T20:40:12.057Z,15.45
2019-05-18T20:42:41.401Z,15.39
2019-05-18T20:45:11.384Z,15.34
2019-05-18T20:47:40.724Z,15.29
2019-05-18T20:50:11.011Z,15.24
2019-05-18T20:52:40.348Z,15.20
2019-05-18T20:55:09.924Z,15.19
2019-05-18T20:57:39.622Z,15.16
2019-05-18T21:00:09.282Z,15.13
2019-05-18T21:02:40.592Z,15.10
2019-05-18T21:05:10.058Z,15.07
2019-05-18T21:07:39.464Z,15.03
2019-05-18T21:10:09.281Z,15.03
2019-05-18T21:12:39.562Z,15.01
2019-05-18T21:15:09.923Z,15.01
2019-05-18T21:17:39.267Z,15.00
2019-05-18T21:20:09.154Z,15.01
2019-05-18T21:22:38.484Z,15.03
2019-05-18T21:25:08.299Z,15.09
2019-05-18T21:27:37.640Z,15.13
2019-05-18T21:30:07.812Z,15.17
2019-05-18T21:32:37.505Z,15.24
2019-05-18T21:35:07.712Z,15.27
2019-05-18T21:37:37.054Z,15.28
2019-05-18T21:40:07.156Z,15.33
2019-05-18T21:42:36.719Z,15.36
2019-05-18T21:45:09.284Z,15.34
2019-05-18T21:47:38.626Z,15.40
2019-05-18T21:50:09.423Z,15.43
2019-05-18T21:52:41.755Z,15.45
2019-05-18T21:55:10.010Z,15.52
2019-05-18T21:57:39.342Z,15.58
2019-05-18T22:00:10.623Z,15.59
2019-05-18T22:02:41.580Z,15.62
2019-05-18T22:05:11.515Z,15.62
2019-05-18T22:07:40.856Z,15.65
2019-05-18T22:10:24.836Z,15.61
2019-05-18T22:12:41.454Z,15.59
2019-05-18T22:15:10.931Z,15.55
2019-05-18T22:17:57.230Z,15.52
2019-05-18T22:20:26.588Z,15.49
2019-05-18T22:22:56.880Z,15.49
2019-05-18T22:25:26.510Z,15.49
2019-05-18T22:27:56.124Z,15.48
2019-05-18T22:30:25.736Z,15.52
2019-05-18T22:32:55.155Z,15.54
2019-05-18T22:35:24.742Z,15.50
2019-05-18T22:37:54.359Z,15.54
2019-05-18T22:40:23.703Z,15.55
2019-05-18T22:42:53.034Z,15.55
2019-05-18T22:45:22.377Z,15.59
2019-05-18T22:47:51.717Z,15.61
2019-05-18T22:50:21.384Z,15.59
2019-05-18T22:52:50.981Z,15.58
2019-05-18T22:55:20.317Z,15.53
2019-05-18T22:57:49.660Z,15.50
2019-05-18T23:00:19.329Z,15.52
2019-05-18T23:02:48.671Z,15.56
2019-05-18T23:05:18.013Z,15.55
2019-05-18T23:07:47.343Z,15.59
2019-05-18T23:10:17.925Z,15.57
2019-05-18T23:12:47.250Z,15.59
2019-05-18T23:15:16.673Z,15.56
2019-05-18T23:17:46.003Z,15.54
2019-05-18T23:20:15.409Z,15.49
2019-05-18T23:22:44.744Z,15.45
2019-05-18T23:25:14.222Z,15.43
2019-05-18T23:27:43.552Z,15.42
2019-05-18T23:30:13.369Z,15.40
2019-05-18T23:32:42.700Z,15.36
2019-05-18T23:35:12.053Z,15.36
2019-05-18T23:37:41.378Z,15.37
2019-05-18T23:40:10.907Z,15.36
2019-05-18T23:42:40.245Z,15.36
2019-05-18T23:45:10.119Z,15.30
2019-05-18T23:47:39.526Z,15.32
2019-05-18T23:50:10.052Z,15.32
2019-05-18T23:52:39.390Z,15.29
2019-05-18T23:55:09.655Z,15.28
2019-05-18T23:57:38.990Z,15.25
